sensor_id;sensor_type;location;lat;lon;timestamp;P1;durP1;ratioP1;P2;durP2;ratioP2
11016;SDS011;54687;50.800;6.772;2023-07-29T00:01:34;2.03;;;1.77;;
11016;SDS011;54687;50.800;6.772;2023-07-29T00:04:01;1.73;;;1.63;;
11016;SDS011;54687;50.800;6.772;2023-07-29T00:06:27;2.97;;;1.92;;
11016;SDS011;54687;50.800;6.772;2023-07-29T00:08:54;2.65;;;1.73;;
11016;SDS011;54687;50.800;6.772;2023-07-29T00:11:22;1.40;;;1.30;;
11016;SDS011;54687;50.800;6.772;2023-07-29T00:13:49;2.95;;;2.00;;
11016;SDS011;54687;50.800;6.772;2023-07-29T00:16:16;2.28;;;1.45;;
11016;SDS011;54687;50.800;6.772;2023-07-29T00:18:49;1.55;;;1.38;;
11016;SDS011;54687;50.800;6.772;2023-07-29T00:21:16;3.58;;;1.50;;
11016;SDS011;54687;50.800;6.772;2023-07-29T00:23:51;2.58;;;1.70;;
11016;SDS011;54687;50.800;6.772;2023-07-29T00:26:20;1.63;;;1.52;;
11016;SDS011;54687;50.800;6.772;2023-07-29T00:28:51;2.60;;;1.30;;
11016;SDS011;54687;50.800;6.772;2023-07-29T00:31:21;1.77;;;1.50;;
11016;SDS011;54687;50.800;6.772;2023-07-29T00:33:52;2.80;;;2.60;;
11016;SDS011;54687;50.800;6.772;2023-07-29T00:36:22;4.30;;;3.40;;
11016;SDS011;54687;50.800;6.772;2023-07-29T00:38:50;2.55;;;2.08;;
11016;SDS011;54687;50.800;6.772;2023-07-29T00:41:26;1.80;;;1.70;;
11016;SDS011;54687;50.800;6.772;2023-07-29T00:43:55;1.90;;;1.80;;
11016;SDS011;54687;50.800;6.772;2023-07-29T00:46:23;2.30;;;1.60;;
11016;SDS011;54687;50.800;6.772;2023-07-29T00:48:52;2.08;;;1.88;;
11016;SDS011;54687;50.800;6.772;2023-07-29T00:51:19;2.03;;;1.48;;
11016;SDS011;54687;50.800;6.772;2023-07-29T00:53:45;2.17;;;1.70;;
11016;SDS011;54687;50.800;6.772;2023-07-29T00:56:12;1.60;;;1.45;;
11016;SDS011;54687;50.800;6.772;2023-07-29T00:58:39;4.95;;;1.88;;
11016;SDS011;54687;50.800;6.772;2023-07-29T01:01:07;4.35;;;1.58;;
11016;SDS011;54687;50.800;6.772;2023-07-29T01:03:34;1.70;;;1.50;;
11016;SDS011;54687;50.800;6.772;2023-07-29T01:06:05;1.60;;;1.50;;
11016;SDS011;54687;50.800;6.772;2023-07-29T01:08:42;1.55;;;1.45;;
11016;SDS011;54687;50.800;6.772;2023-07-29T01:11:22;1.45;;;1.35;;
11016;SDS011;54687;50.800;6.772;2023-07-29T01:14:01;1.70;;;1.60;;
11016;SDS011;54687;50.800;6.772;2023-07-29T01:16:37;2.30;;;1.52;;
11016;SDS011;54687;50.800;6.772;2023-07-29T01:19:07;2.35;;;1.50;;
11016;SDS011;54687;50.800;6.772;2023-07-29T01:21:46;1.70;;;1.50;;
11016;SDS011;54687;50.800;6.772;2023-07-29T01:24:14;1.55;;;1.45;;
11016;SDS011;54687;50.800;6.772;2023-07-29T01:26:41;2.85;;;1.70;;
11016;SDS011;54687;50.800;6.772;2023-07-29T01:29:07;2.22;;;2.00;;
11016;SDS011;54687;50.800;6.772;2023-07-29T01:31:34;2.67;;;2.20;;
11016;SDS011;54687;50.800;6.772;2023-07-29T01:34:09;2.00;;;1.67;;
11016;SDS011;54687;50.800;6.772;2023-07-29T01:36:41;1.63;;;1.52;;
11016;SDS011;54687;50.800;6.772;2023-07-29T01:39:11;1.95;;;1.77;;
11016;SDS011;54687;50.800;6.772;2023-07-29T01:41:40;3.83;;;1.88;;
11016;SDS011;54687;50.800;6.772;2023-07-29T01:44:08;2.28;;;1.58;;
11016;SDS011;54687;50.800;6.772;2023-07-29T01:46:36;4.78;;;2.00;;
11016;SDS011;54687;50.800;6.772;2023-07-29T01:49:04;4.40;;;1.98;;
11016;SDS011;54687;50.800;6.772;2023-07-29T01:51:31;4.00;;;2.10;;
11016;SDS011;54687;50.800;6.772;2023-07-29T01:53:58;2.17;;;1.77;;
11016;SDS011;54687;50.800;6.772;2023-07-29T01:56:25;4.47;;;2.60;;
11016;SDS011;54687;50.800;6.772;2023-07-29T01:58:53;3.60;;;1.90;;
11016;SDS011;54687;50.800;6.772;2023-07-29T02:01:19;2.20;;;1.95;;
11016;SDS011;54687;50.800;6.772;2023-07-29T02:03:46;2.58;;;1.90;;
11016;SDS011;54687;50.800;6.772;2023-07-29T02:06:16;2.53;;;2.00;;
11016;SDS011;54687;50.800;6.772;2023-07-29T02:08:43;1.80;;;1.70;;
11016;SDS011;54687;50.800;6.772;2023-07-29T02:11:09;2.70;;;1.98;;
11016;SDS011;54687;50.800;6.772;2023-07-29T02:13:36;2.40;;;2.05;;
11016;SDS011;54687;50.800;6.772;2023-07-29T02:16:04;3.88;;;1.90;;
11016;SDS011;54687;50.800;6.772;2023-07-29T02:18:30;2.88;;;1.98;;
11016;SDS011;54687;50.800;6.772;2023-07-29T02:20:57;3.60;;;2.13;;
11016;SDS011;54687;50.800;6.772;2023-07-29T02:23:24;2.83;;;1.95;;
11016;SDS011;54687;50.800;6.772;2023-07-29T02:25:50;2.78;;;2.42;;
11016;SDS011;54687;50.800;6.772;2023-07-29T02:28:17;2.50;;;1.90;;
11016;SDS011;54687;50.800;6.772;2023-07-29T02:30:43;2.05;;;1.83;;
11016;SDS011;54687;50.800;6.772;2023-07-29T02:33:11;2.80;;;2.17;;
11016;SDS011;54687;50.800;6.772;2023-07-29T02:35:38;2.15;;;1.95;;
11016;SDS011;54687;50.800;6.772;2023-07-29T02:38:05;2.42;;;2.22;;
11016;SDS011;54687;50.800;6.772;2023-07-29T02:40:31;2.85;;;2.10;;
11016;SDS011;54687;50.800;6.772;2023-07-29T02:42:58;5.30;;;2.47;;
11016;SDS011;54687;50.800;6.772;2023-07-29T02:45:24;3.70;;;2.30;;
11016;SDS011;54687;50.800;6.772;2023-07-29T02:47:51;2.75;;;1.85;;
11016;SDS011;54687;50.800;6.772;2023-07-29T02:50:19;2.20;;;2.00;;
11016;SDS011;54687;50.800;6.772;2023-07-29T02:52:46;2.45;;;2.25;;
11016;SDS011;54687;50.800;6.772;2023-07-29T02:55:13;2.47;;;2.10;;
11016;SDS011;54687;50.800;6.772;2023-07-29T02:57:39;2.92;;;2.45;;
11016;SDS011;54687;50.800;6.772;2023-07-29T03:00:06;3.97;;;2.13;;
11016;SDS011;54687;50.800;6.772;2023-07-29T03:02:34;3.78;;;1.98;;
11016;SDS011;54687;50.800;6.772;2023-07-29T03:05:00;3.22;;;2.10;;
11016;SDS011;54687;50.800;6.772;2023-07-29T03:07:28;1.90;;;1.80;;
11016;SDS011;54687;50.800;6.772;2023-07-29T03:09:55;2.13;;;1.52;;
11016;SDS011;54687;50.800;6.772;2023-07-29T03:12:22;2.50;;;2.30;;
11016;SDS011;54687;50.800;6.772;2023-07-29T03:14:49;1.90;;;1.80;;
11016;SDS011;54687;50.800;6.772;2023-07-29T03:17:15;2.15;;;1.90;;
11016;SDS011;54687;50.800;6.772;2023-07-29T03:19:42;1.40;;;1.30;;
11016;SDS011;54687;50.800;6.772;2023-07-29T03:22:08;1.60;;;1.40;;
11016;SDS011;54687;50.800;6.772;2023-07-29T03:24:36;1.40;;;1.30;;
11016;SDS011;54687;50.800;6.772;2023-07-29T03:27:03;2.55;;;1.70;;
11016;SDS011;54687;50.800;6.772;2023-07-29T03:29:30;4.07;;;1.50;;
11016;SDS011;54687;50.800;6.772;2023-07-29T03:31:57;1.63;;;1.17;;
11016;SDS011;54687;50.800;6.772;2023-07-29T03:34:23;1.40;;;1.30;;
11016;SDS011;54687;50.800;6.772;2023-07-29T03:36:50;2.15;;;1.65;;
11016;SDS011;54687;50.800;6.772;2023-07-29T03:39:16;1.80;;;1.50;;
11016;SDS011;54687;50.800;6.772;2023-07-29T03:41:44;1.83;;;1.50;;
11016;SDS011;54687;50.800;6.772;2023-07-29T03:44:11;1.42;;;1.33;;
11016;SDS011;54687;50.800;6.772;2023-07-29T03:46:37;2.47;;;1.40;;
11016;SDS011;54687;50.800;6.772;2023-07-29T03:49:04;2.08;;;1.42;;
11016;SDS011;54687;50.800;6.772;2023-07-29T03:51:31;2.72;;;1.40;;
11016;SDS011;54687;50.800;6.772;2023-07-29T03:53:57;1.70;;;1.60;;
11016;SDS011;54687;50.800;6.772;2023-07-29T03:56:24;2.55;;;1.45;;
11016;SDS011;54687;50.800;6.772;2023-07-29T03:58:52;1.67;;;1.58;;
11016;SDS011;54687;50.800;6.772;2023-07-29T04:01:19;1.88;;;1.63;;
11016;SDS011;54687;50.800;6.772;2023-07-29T04:03:45;3.38;;;1.73;;
11016;SDS011;54687;50.800;6.772;2023-07-29T04:06:12;2.63;;;1.48;;
11016;SDS011;54687;50.800;6.772;2023-07-29T04:08:38;2.15;;;1.70;;
11016;SDS011;54687;50.800;6.772;2023-07-29T04:11:06;5.07;;;1.60;;
11016;SDS011;54687;50.800;6.772;2023-07-29T04:13:33;3.10;;;1.83;;
11016;SDS011;54687;50.800;6.772;2023-07-29T04:16:01;3.92;;;2.17;;
11016;SDS011;54687;50.800;6.772;2023-07-29T04:18:27;2.33;;;1.88;;
11016;SDS011;54687;50.800;6.772;2023-07-29T04:20:54;1.73;;;1.55;;
11016;SDS011;54687;50.800;6.772;2023-07-29T04:23:21;2.65;;;1.90;;
11016;SDS011;54687;50.800;6.772;2023-07-29T04:25:47;4.00;;;1.90;;
11016;SDS011;54687;50.800;6.772;2023-07-29T04:28:15;2.65;;;1.85;;
11016;SDS011;54687;50.800;6.772;2023-07-29T04:30:41;1.50;;;1.40;;
11016;SDS011;54687;50.800;6.772;2023-07-29T04:33:09;1.92;;;1.70;;
11016;SDS011;54687;50.800;6.772;2023-07-29T04:35:36;1.70;;;1.60;;
11016;SDS011;54687;50.800;6.772;2023-07-29T04:38:02;3.00;;;1.80;;
11016;SDS011;54687;50.800;6.772;2023-07-29T04:40:29;1.75;;;1.65;;
11016;SDS011;54687;50.800;6.772;2023-07-29T04:42:59;2.63;;;1.90;;
11016;SDS011;54687;50.800;6.772;2023-07-29T04:45:27;1.52;;;1.38;;
11016;SDS011;54687;50.800;6.772;2023-07-29T04:47:54;1.75;;;1.65;;
11016;SDS011;54687;50.800;6.772;2023-07-29T04:50:22;4.03;;;1.90;;
11016;SDS011;54687;50.800;6.772;2023-07-29T04:52:49;2.72;;;1.95;;
11016;SDS011;54687;50.800;6.772;2023-07-29T04:55:15;2.47;;;1.58;;
11016;SDS011;54687;50.800;6.772;2023-07-29T04:57:42;6.00;;;5.25;;
11016;SDS011;54687;50.800;6.772;2023-07-29T05:00:09;5.63;;;4.13;;
11016;SDS011;54687;50.800;6.772;2023-07-29T05:02:36;3.58;;;2.35;;
11016;SDS011;54687;50.800;6.772;2023-07-29T05:05:03;2.42;;;1.60;;
11016;SDS011;54687;50.800;6.772;2023-07-29T05:07:31;2.72;;;1.95;;
11016;SDS011;54687;50.800;6.772;2023-07-29T05:09:58;2.08;;;1.90;;
11016;SDS011;54687;50.800;6.772;2023-07-29T05:12:24;2.90;;;1.88;;
11016;SDS011;54687;50.800;6.772;2023-07-29T05:14:51;3.70;;;2.10;;
11016;SDS011;54687;50.800;6.772;2023-07-29T05:17:18;2.63;;;2.38;;
11016;SDS011;54687;50.800;6.772;2023-07-29T05:19:44;2.60;;;2.40;;
11016;SDS011;54687;50.800;6.772;2023-07-29T05:22:11;3.10;;;2.80;;
11016;SDS011;54687;50.800;6.772;2023-07-29T05:24:39;2.38;;;2.17;;
11016;SDS011;54687;50.800;6.772;2023-07-29T05:27:05;4.32;;;2.05;;
11016;SDS011;54687;50.800;6.772;2023-07-29T05:29:33;3.17;;;2.30;;
11016;SDS011;54687;50.800;6.772;2023-07-29T05:32:00;3.10;;;2.33;;
11016;SDS011;54687;50.800;6.772;2023-07-29T05:34:26;2.00;;;1.90;;
11016;SDS011;54687;50.800;6.772;2023-07-29T05:36:53;2.80;;;2.45;;
11016;SDS011;54687;50.800;6.772;2023-07-29T05:39:20;2.65;;;2.20;;
11016;SDS011;54687;50.800;6.772;2023-07-29T05:41:47;3.30;;;2.17;;
11016;SDS011;54687;50.800;6.772;2023-07-29T05:44:14;2.17;;;1.98;;
11016;SDS011;54687;50.800;6.772;2023-07-29T05:46:41;5.32;;;2.42;;
11016;SDS011;54687;50.800;6.772;2023-07-29T05:49:07;2.53;;;2.33;;
11016;SDS011;54687;50.800;6.772;2023-07-29T05:51:34;2.50;;;2.30;;
11016;SDS011;54687;50.800;6.772;2023-07-29T05:54:01;2.40;;;2.20;;
11016;SDS011;54687;50.800;6.772;2023-07-29T05:56:27;2.33;;;2.10;;
11016;SDS011;54687;50.800;6.772;2023-07-29T05:58:56;4.70;;;2.35;;
11016;SDS011;54687;50.800;6.772;2023-07-29T06:01:22;4.20;;;2.25;;
11016;SDS011;54687;50.800;6.772;2023-07-29T06:03:49;2.40;;;2.20;;
11016;SDS011;54687;50.800;6.772;2023-07-29T06:06:16;2.35;;;2.15;;
11016;SDS011;54687;50.800;6.772;2023-07-29T06:08:42;4.93;;;2.90;;
11016;SDS011;54687;50.800;6.772;2023-07-29T06:11:09;4.28;;;3.28;;
11016;SDS011;54687;50.800;6.772;2023-07-29T06:13:36;2.85;;;2.47;;
11016;SDS011;54687;50.800;6.772;2023-07-29T06:16:04;4.10;;;2.83;;
11016;SDS011;54687;50.800;6.772;2023-07-29T06:18:30;3.30;;;2.90;;
11016;SDS011;54687;50.800;6.772;2023-07-29T06:20:57;3.72;;;2.88;;
11016;SDS011;54687;50.800;6.772;2023-07-29T06:23:23;3.10;;;2.30;;
11016;SDS011;54687;50.800;6.772;2023-07-29T06:25:50;2.83;;;2.63;;
11016;SDS011;54687;50.800;6.772;2023-07-29T06:28:16;4.47;;;3.05;;
11016;SDS011;54687;50.800;6.772;2023-07-29T06:30:43;5.13;;;2.63;;
11016;SDS011;54687;50.800;6.772;2023-07-29T06:33:11;3.13;;;2.83;;
11016;SDS011;54687;50.800;6.772;2023-07-29T06:35:39;5.63;;;2.85;;
11016;SDS011;54687;50.800;6.772;2023-07-29T06:38:05;3.90;;;2.90;;
11016;SDS011;54687;50.800;6.772;2023-07-29T06:40:32;6.68;;;3.03;;
11016;SDS011;54687;50.800;6.772;2023-07-29T06:42:58;2.83;;;2.60;;
11016;SDS011;54687;50.800;6.772;2023-07-29T06:45:25;3.65;;;2.85;;
11016;SDS011;54687;50.800;6.772;2023-07-29T06:47:52;4.20;;;2.75;;
11016;SDS011;54687;50.800;6.772;2023-07-29T06:50:20;2.83;;;2.63;;
11016;SDS011;54687;50.800;6.772;2023-07-29T06:52:46;2.95;;;2.70;;
11016;SDS011;54687;50.800;6.772;2023-07-29T06:55:13;6.47;;;2.60;;
11016;SDS011;54687;50.800;6.772;2023-07-29T06:57:39;3.70;;;3.20;;
11016;SDS011;54687;50.800;6.772;2023-07-29T07:00:06;4.07;;;3.20;;
11016;SDS011;54687;50.800;6.772;2023-07-29T07:02:34;5.38;;;3.55;;
11016;SDS011;54687;50.800;6.772;2023-07-29T07:05:01;5.63;;;3.20;;
11016;SDS011;54687;50.800;6.772;2023-07-29T07:07:29;3.13;;;2.92;;
11016;SDS011;54687;50.800;6.772;2023-07-29T07:09:56;4.43;;;2.90;;
11016;SDS011;54687;50.800;6.772;2023-07-29T07:12:22;5.47;;;3.05;;
11016;SDS011;54687;50.800;6.772;2023-07-29T07:14:49;3.88;;;3.28;;
11016;SDS011;54687;50.800;6.772;2023-07-29T07:17:15;3.40;;;3.10;;
11016;SDS011;54687;50.800;6.772;2023-07-29T07:19:42;5.05;;;3.00;;
11016;SDS011;54687;50.800;6.772;2023-07-29T07:22:08;4.00;;;2.83;;
11016;SDS011;54687;50.800;6.772;2023-07-29T07:24:36;3.58;;;2.67;;
11016;SDS011;54687;50.800;6.772;2023-07-29T07:27:03;4.30;;;3.40;;
11016;SDS011;54687;50.800;6.772;2023-07-29T07:29:30;3.25;;;2.45;;
11016;SDS011;54687;50.800;6.772;2023-07-29T07:31:57;2.33;;;2.17;;
11016;SDS011;54687;50.800;6.772;2023-07-29T07:34:24;4.53;;;4.10;;
11016;SDS011;54687;50.800;6.772;2023-07-29T07:36:51;2.50;;;2.30;;
11016;SDS011;54687;50.800;6.772;2023-07-29T07:39:18;7.45;;;2.72;;
11016;SDS011;54687;50.800;6.772;2023-07-29T07:41:46;3.05;;;2.53;;
11016;SDS011;54687;50.800;6.772;2023-07-29T07:44:13;3.10;;;2.67;;
11016;SDS011;54687;50.800;6.772;2023-07-29T07:46:43;3.67;;;2.70;;
11016;SDS011;54687;50.800;6.772;2023-07-29T07:49:09;2.50;;;2.20;;
11016;SDS011;54687;50.800;6.772;2023-07-29T07:51:36;4.00;;;3.38;;
11016;SDS011;54687;50.800;6.772;2023-07-29T07:54:03;4.43;;;2.75;;
11016;SDS011;54687;50.800;6.772;2023-07-29T07:56:29;2.15;;;2.05;;
11016;SDS011;54687;50.800;6.772;2023-07-29T07:58:57;2.42;;;2.25;;
11016;SDS011;54687;50.800;6.772;2023-07-29T08:01:24;2.47;;;2.28;;
11016;SDS011;54687;50.800;6.772;2023-07-29T08:03:50;4.15;;;2.33;;
11016;SDS011;54687;50.800;6.772;2023-07-29T08:06:17;3.65;;;2.30;;
11016;SDS011;54687;50.800;6.772;2023-07-29T08:08:44;3.72;;;2.03;;
11016;SDS011;54687;50.800;6.772;2023-07-29T08:11:10;2.22;;;2.00;;
11016;SDS011;54687;50.800;6.772;2023-07-29T08:13:37;3.72;;;2.17;;
11016;SDS011;54687;50.800;6.772;2023-07-29T08:16:05;3.35;;;2.15;;
11016;SDS011;54687;50.800;6.772;2023-07-29T08:18:31;3.13;;;2.47;;
11016;SDS011;54687;50.800;6.772;2023-07-29T08:20:59;2.10;;;1.88;;
11016;SDS011;54687;50.800;6.772;2023-07-29T08:23:28;1.90;;;1.80;;
11016;SDS011;54687;50.800;6.772;2023-07-29T08:25:56;3.50;;;2.25;;
11016;SDS011;54687;50.800;6.772;2023-07-29T08:28:27;2.08;;;1.95;;
11016;SDS011;54687;50.800;6.772;2023-07-29T08:30:54;2.30;;;1.90;;
11016;SDS011;54687;50.800;6.772;2023-07-29T08:33:22;2.10;;;1.90;;
11016;SDS011;54687;50.800;6.772;2023-07-29T08:35:49;2.15;;;2.00;;
11016;SDS011;54687;50.800;6.772;2023-07-29T08:38:16;3.65;;;2.47;;
11016;SDS011;54687;50.800;6.772;2023-07-29T08:40:45;2.33;;;2.00;;
11016;SDS011;54687;50.800;6.772;2023-07-29T08:43:16;3.10;;;2.17;;
11016;SDS011;54687;50.800;6.772;2023-07-29T08:45:45;2.17;;;1.98;;
11016;SDS011;54687;50.800;6.772;2023-07-29T08:48:12;1.80;;;1.70;;
11016;SDS011;54687;50.800;6.772;2023-07-29T08:50:47;4.22;;;2.47;;
11016;SDS011;54687;50.800;6.772;2023-07-29T08:53:14;2.25;;;1.92;;
11016;SDS011;54687;50.800;6.772;2023-07-29T08:55:42;3.85;;;2.17;;
11016;SDS011;54687;50.800;6.772;2023-07-29T08:58:09;3.55;;;3.15;;
11016;SDS011;54687;50.800;6.772;2023-07-29T09:00:37;2.08;;;1.95;;
11016;SDS011;54687;50.800;6.772;2023-07-29T09:03:04;2.85;;;1.80;;
11016;SDS011;54687;50.800;6.772;2023-07-29T09:05:32;1.73;;;1.63;;
11016;SDS011;54687;50.800;6.772;2023-07-29T09:08:01;2.83;;;2.33;;
11016;SDS011;54687;50.800;6.772;2023-07-29T09:10:28;3.08;;;1.48;;
11016;SDS011;54687;50.800;6.772;2023-07-29T09:12:55;1.92;;;1.83;;
11016;SDS011;54687;50.800;6.772;2023-07-29T09:15:28;2.70;;;1.70;;
11016;SDS011;54687;50.800;6.772;2023-07-29T09:17:55;3.22;;;1.80;;
11016;SDS011;54687;50.800;6.772;2023-07-29T09:20:25;2.30;;;1.95;;
11016;SDS011;54687;50.800;6.772;2023-07-29T09:22:53;1.90;;;1.70;;
11016;SDS011;54687;50.800;6.772;2023-07-29T09:25:25;2.20;;;2.00;;
11016;SDS011;54687;50.800;6.772;2023-07-29T09:27:53;3.67;;;2.25;;
11016;SDS011;54687;50.800;6.772;2023-07-29T09:30:25;2.70;;;2.08;;
11016;SDS011;54687;50.800;6.772;2023-07-29T09:32:54;2.10;;;1.90;;
11016;SDS011;54687;50.800;6.772;2023-07-29T09:35:21;2.63;;;1.67;;
11016;SDS011;54687;50.800;6.772;2023-07-29T09:37:48;2.10;;;1.90;;
11016;SDS011;54687;50.800;6.772;2023-07-29T09:40:15;2.13;;;1.75;;
11016;SDS011;54687;50.800;6.772;2023-07-29T09:42:48;2.47;;;1.90;;
11016;SDS011;54687;50.800;6.772;2023-07-29T09:45:19;2.10;;;2.00;;
11016;SDS011;54687;50.800;6.772;2023-07-29T09:47:47;1.83;;;1.73;;
11016;SDS011;54687;50.800;6.772;2023-07-29T09:50:14;1.92;;;1.80;;
11016;SDS011;54687;50.800;6.772;2023-07-29T09:52:41;1.80;;;1.70;;
11016;SDS011;54687;50.800;6.772;2023-07-29T09:55:09;3.03;;;2.20;;
11016;SDS011;54687;50.800;6.772;2023-07-29T09:57:37;1.95;;;1.77;;
11016;SDS011;54687;50.800;6.772;2023-07-29T10:00:07;3.42;;;1.75;;
11016;SDS011;54687;50.800;6.772;2023-07-29T10:02:37;1.83;;;1.73;;
11016;SDS011;54687;50.800;6.772;2023-07-29T10:05:05;3.97;;;1.92;;
11016;SDS011;54687;50.800;6.772;2023-07-29T10:07:33;7.47;;;2.45;;
11016;SDS011;54687;50.800;6.772;2023-07-29T10:10:01;2.20;;;2.00;;
11016;SDS011;54687;50.800;6.772;2023-07-29T10:12:30;2.85;;;1.52;;
11016;SDS011;54687;50.800;6.772;2023-07-29T10:14:58;1.95;;;1.65;;
11016;SDS011;54687;50.800;6.772;2023-07-29T10:17:27;2.38;;;2.28;;
11016;SDS011;54687;50.800;6.772;2023-07-29T10:19:55;3.58;;;2.45;;
11016;SDS011;54687;50.800;6.772;2023-07-29T10:22:24;4.10;;;2.50;;
11016;SDS011;54687;50.800;6.772;2023-07-29T10:24:54;5.00;;;2.40;;
11016;SDS011;54687;50.800;6.772;2023-07-29T10:27:26;5.18;;;2.38;;
11016;SDS011;54687;50.800;6.772;2023-07-29T10:29:55;2.67;;;1.92;;
11016;SDS011;54687;50.800;6.772;2023-07-29T10:32:23;2.30;;;2.10;;
11016;SDS011;54687;50.800;6.772;2023-07-29T10:34:53;2.65;;;2.10;;
11016;SDS011;54687;50.800;6.772;2023-07-29T10:37:20;2.70;;;2.50;;
11016;SDS011;54687;50.800;6.772;2023-07-29T10:39:52;4.95;;;2.63;;
11016;SDS011;54687;50.800;6.772;2023-07-29T10:42:20;2.85;;;2.40;;
11016;SDS011;54687;50.800;6.772;2023-07-29T10:44:47;3.47;;;2.85;;
11016;SDS011;54687;50.800;6.772;2023-07-29T10:47:18;2.75;;;2.42;;
11016;SDS011;54687;50.800;6.772;2023-07-29T10:49:47;3.15;;;2.30;;
11016;SDS011;54687;50.800;6.772;2023-07-29T10:52:27;2.55;;;2.35;;
11016;SDS011;54687;50.800;6.772;2023-07-29T10:54:55;2.20;;;1.98;;
11016;SDS011;54687;50.800;6.772;2023-07-29T10:57:30;2.42;;;2.22;;
11016;SDS011;54687;50.800;6.772;2023-07-29T10:59:57;2.97;;;2.35;;
11016;SDS011;54687;50.800;6.772;2023-07-29T11:02:28;2.63;;;2.42;;
11016;SDS011;54687;50.800;6.772;2023-07-29T11:04:56;3.60;;;2.20;;
11016;SDS011;54687;50.800;6.772;2023-07-29T11:07:24;3.75;;;2.70;;
11016;SDS011;54687;50.800;6.772;2023-07-29T11:09:58;2.53;;;2.33;;
11016;SDS011;54687;50.800;6.772;2023-07-29T11:12:33;2.50;;;2.30;;
11016;SDS011;54687;50.800;6.772;2023-07-29T11:15:23;4.93;;;2.10;;
11016;SDS011;54687;50.800;6.772;2023-07-29T11:17:51;2.42;;;2.22;;
11016;SDS011;54687;50.800;6.772;2023-07-29T11:20:20;2.22;;;2.13;;
11016;SDS011;54687;50.800;6.772;2023-07-29T11:22:50;2.80;;;2.47;;
11016;SDS011;54687;50.800;6.772;2023-07-29T11:25:17;2.30;;;2.10;;
11016;SDS011;54687;50.800;6.772;2023-07-29T11:27:44;2.45;;;2.25;;
11016;SDS011;54687;50.800;6.772;2023-07-29T11:30:12;2.25;;;2.05;;
11016;SDS011;54687;50.800;6.772;2023-07-29T11:32:41;2.40;;;2.20;;
11016;SDS011;54687;50.800;6.772;2023-07-29T11:35:09;2.20;;;2.00;;
11016;SDS011;54687;50.800;6.772;2023-07-29T11:37:38;5.05;;;2.50;;
11016;SDS011;54687;50.800;6.772;2023-07-29T11:40:07;2.40;;;2.20;;
11016;SDS011;54687;50.800;6.772;2023-07-29T11:42:36;2.47;;;2.20;;
11016;SDS011;54687;50.800;6.772;2023-07-29T11:45:03;3.08;;;2.63;;
11016;SDS011;54687;50.800;6.772;2023-07-29T11:47:31;2.53;;;2.22;;
11016;SDS011;54687;50.800;6.772;2023-07-29T11:50:02;2.28;;;2.08;;
11016;SDS011;54687;50.800;6.772;2023-07-29T11:52:31;2.40;;;2.20;;
11016;SDS011;54687;50.800;6.772;2023-07-29T11:54:59;3.35;;;3.15;;
11016;SDS011;54687;50.800;6.772;2023-07-29T11:57:28;3.20;;;2.28;;
11016;SDS011;54687;50.800;6.772;2023-07-29T11:59:55;2.67;;;2.28;;
11016;SDS011;54687;50.800;6.772;2023-07-29T12:02:22;2.42;;;2.17;;
11016;SDS011;54687;50.800;6.772;2023-07-29T12:04:50;2.70;;;2.47;;
11016;SDS011;54687;50.800;6.772;2023-07-29T12:07:17;2.10;;;2.00;;
11016;SDS011;54687;50.800;6.772;2023-07-29T12:09:45;2.45;;;2.20;;
11016;SDS011;54687;50.800;6.772;2023-07-29T12:12:12;2.40;;;2.20;;
11016;SDS011;54687;50.800;6.772;2023-07-29T12:14:42;2.20;;;2.00;;
11016;SDS011;54687;50.800;6.772;2023-07-29T12:17:10;2.17;;;2.08;;
11016;SDS011;54687;50.800;6.772;2023-07-29T12:19:37;2.28;;;2.17;;
11016;SDS011;54687;50.800;6.772;2023-07-29T12:22:06;2.58;;;2.38;;
11016;SDS011;54687;50.800;6.772;2023-07-29T12:24:34;2.15;;;1.95;;
11016;SDS011;54687;50.800;6.772;2023-07-29T12:27:02;2.10;;;2.00;;
11016;SDS011;54687;50.800;6.772;2023-07-29T12:29:30;2.17;;;2.08;;
11016;SDS011;54687;50.800;6.772;2023-07-29T12:31:59;2.67;;;2.00;;
11016;SDS011;54687;50.800;6.772;2023-07-29T12:34:27;1.75;;;1.52;;
11016;SDS011;54687;50.800;6.772;2023-07-29T12:36:55;1.90;;;1.80;;
11016;SDS011;54687;50.800;6.772;2023-07-29T12:39:23;1.95;;;1.77;;
11016;SDS011;54687;50.800;6.772;2023-07-29T12:41:52;1.90;;;1.77;;
11016;SDS011;54687;50.800;6.772;2023-07-29T12:44:22;2.45;;;2.25;;
11016;SDS011;54687;50.800;6.772;2023-07-29T12:46:49;2.10;;;2.00;;
11016;SDS011;54687;50.800;6.772;2023-07-29T12:49:17;2.00;;;1.90;;
11016;SDS011;54687;50.800;6.772;2023-07-29T12:51:45;1.77;;;1.67;;
11016;SDS011;54687;50.800;6.772;2023-07-29T12:54:11;2.63;;;1.88;;
11016;SDS011;54687;50.800;6.772;2023-07-29T12:56:38;2.28;;;2.08;;
11016;SDS011;54687;50.800;6.772;2023-07-29T12:59:04;2.60;;;2.40;;
11016;SDS011;54687;50.800;6.772;2023-07-29T13:01:31;2.38;;;2.17;;
11016;SDS011;54687;50.800;6.772;2023-07-29T13:03:58;1.70;;;1.60;;
11016;SDS011;54687;50.800;6.772;2023-07-29T13:06:26;2.17;;;2.08;;
11016;SDS011;54687;50.800;6.772;2023-07-29T13:08:52;2.13;;;1.50;;
11016;SDS011;54687;50.800;6.772;2023-07-29T13:11:19;1.90;;;1.75;;
11016;SDS011;54687;50.800;6.772;2023-07-29T13:13:45;3.22;;;2.67;;
11016;SDS011;54687;50.800;6.772;2023-07-29T13:16:12;2.17;;;2.03;;
11016;SDS011;54687;50.800;6.772;2023-07-29T13:18:39;1.80;;;1.70;;
11016;SDS011;54687;50.800;6.772;2023-07-29T13:21:06;1.52;;;1.42;;
11016;SDS011;54687;50.800;6.772;2023-07-29T13:23:34;2.78;;;1.50;;
11016;SDS011;54687;50.800;6.772;2023-07-29T13:26:01;2.63;;;1.70;;
11016;SDS011;54687;50.800;6.772;2023-07-29T13:28:28;1.83;;;1.73;;
11016;SDS011;54687;50.800;6.772;2023-07-29T13:30:55;4.57;;;1.83;;
11016;SDS011;54687;50.800;6.772;2023-07-29T13:33:21;4.22;;;1.63;;
11016;SDS011;54687;50.800;6.772;2023-07-29T13:35:48;7.35;;;3.30;;
11016;SDS011;54687;50.800;6.772;2023-07-29T13:38:15;8.80;;;2.50;;
11016;SDS011;54687;50.800;6.772;2023-07-29T13:40:43;3.28;;;2.25;;
11016;SDS011;54687;50.800;6.772;2023-07-29T13:43:10;3.17;;;2.47;;
11016;SDS011;54687;50.800;6.772;2023-07-29T13:45:37;2.88;;;2.10;;
11016;SDS011;54687;50.800;6.772;2023-07-29T13:48:04;2.97;;;2.10;;
11016;SDS011;54687;50.800;6.772;2023-07-29T13:50:31;1.85;;;1.73;;
11016;SDS011;54687;50.800;6.772;2023-07-29T13:52:57;3.00;;;1.88;;
11016;SDS011;54687;50.800;6.772;2023-07-29T13:55:24;3.92;;;2.20;;
11016;SDS011;54687;50.800;6.772;2023-07-29T13:57:52;2.10;;;1.90;;
11016;SDS011;54687;50.800;6.772;2023-07-29T14:00:18;3.63;;;2.33;;
11016;SDS011;54687;50.800;6.772;2023-07-29T14:02:45;2.95;;;2.35;;
11016;SDS011;54687;50.800;6.772;2023-07-29T14:05:12;4.05;;;2.60;;
11016;SDS011;54687;50.800;6.772;2023-07-29T14:07:39;2.90;;;2.60;;
11016;SDS011;54687;50.800;6.772;2023-07-29T14:10:06;3.10;;;2.75;;
11016;SDS011;54687;50.800;6.772;2023-07-29T14:12:33;3.30;;;3.00;;
11016;SDS011;54687;50.800;6.772;2023-07-29T14:15:01;2.85;;;2.50;;
11016;SDS011;54687;50.800;6.772;2023-07-29T14:17:29;2.70;;;2.50;;
11016;SDS011;54687;50.800;6.772;2023-07-29T14:19:55;4.82;;;3.58;;
11016;SDS011;54687;50.800;6.772;2023-07-29T14:22:22;3.28;;;2.97;;
11016;SDS011;54687;50.800;6.772;2023-07-29T14:24:49;3.05;;;2.70;;
11016;SDS011;54687;50.800;6.772;2023-07-29T14:27:15;4.28;;;3.75;;
11016;SDS011;54687;50.800;6.772;2023-07-29T14:29:42;6.78;;;3.33;;
11016;SDS011;54687;50.800;6.772;2023-07-29T14:32:10;2.65;;;2.45;;
11016;SDS011;54687;50.800;6.772;2023-07-29T14:34:37;2.80;;;2.30;;
11016;SDS011;54687;50.800;6.772;2023-07-29T14:37:04;3.80;;;3.50;;
11016;SDS011;54687;50.800;6.772;2023-07-29T14:39:33;6.50;;;4.10;;
11016;SDS011;54687;50.800;6.772;2023-07-29T14:42:00;5.13;;;2.72;;
11016;SDS011;54687;50.800;6.772;2023-07-29T14:44:27;8.73;;;2.63;;
11016;SDS011;54687;50.800;6.772;2023-07-29T14:46:53;3.67;;;2.80;;
11016;SDS011;54687;50.800;6.772;2023-07-29T14:49:21;3.63;;;3.20;;
11016;SDS011;54687;50.800;6.772;2023-07-29T14:51:48;2.90;;;2.70;;